sensor_id;sensor_type;location;lat;lon;timestamp;P1;durP1;ratioP1;P2;durP2;ratioP2
14698;SDS011;7439;50.804;4.602;2022-12-15T00:01:04;61.40;;;34.70;;
14698;SDS011;7439;50.804;4.602;2022-12-15T00:03:49;69.63;;;39.47;;
14698;SDS011;7439;50.804;4.602;2022-12-15T00:06:34;68.63;;;38.20;;
14698;SDS011;7439;50.804;4.602;2022-12-15T00:09:19;63.57;;;35.13;;
14698;SDS011;7439;50.804;4.602;2022-12-15T00:12:04;69.77;;;36.40;;
14698;SDS011;7439;50.804;4.602;2022-12-15T00:14:50;64.87;;;37.40;;
14698;SDS011;7439;50.804;4.602;2022-12-15T00:17:36;62.33;;;37.37;;
14698;SDS011;7439;50.804;4.602;2022-12-15T00:20:21;61.97;;;35.43;;
14698;SDS011;7439;50.804;4.602;2022-12-15T00:23:06;68.93;;;37.73;;
14698;SDS011;7439;50.804;4.602;2022-12-15T00:25:51;65.67;;;35.57;;
14698;SDS011;7439;50.804;4.602;2022-12-15T00:28:36;63.20;;;35.20;;
14698;SDS011;7439;50.804;4.602;2022-12-15T00:31:21;56.97;;;33.67;;
14698;SDS011;7439;50.804;4.602;2022-12-15T00:34:08;60.07;;;33.17;;
14698;SDS011;7439;50.804;4.602;2022-12-15T00:36:53;61.87;;;34.80;;
14698;SDS011;7439;50.804;4.602;2022-12-15T00:39:38;58.40;;;35.50;;
14698;SDS011;7439;50.804;4.602;2022-12-15T00:42:06;66.60;;;37.53;;
14698;SDS011;7439;50.804;4.602;2022-12-15T00:44:33;61.13;;;36.37;;
14698;SDS011;7439;50.804;4.602;2022-12-15T00:47:01;65.03;;;35.87;;
14698;SDS011;7439;50.804;4.602;2022-12-15T00:49:29;60.60;;;33.57;;
14698;SDS011;7439;50.804;4.602;2022-12-15T00:52:15;55.60;;;33.57;;
14698;SDS011;7439;50.804;4.602;2022-12-15T00:55:00;54.73;;;31.43;;
14698;SDS011;7439;50.804;4.602;2022-12-15T00:57:45;54.27;;;33.13;;
14698;SDS011;7439;50.804;4.602;2022-12-15T01:00:30;58.47;;;34.87;;
14698;SDS011;7439;50.804;4.602;2022-12-15T01:03:16;59.43;;;34.73;;
14698;SDS011;7439;50.804;4.602;2022-12-15T01:06:04;56.77;;;32.47;;
14698;SDS011;7439;50.804;4.602;2022-12-15T01:08:50;56.80;;;34.20;;
14698;SDS011;7439;50.804;4.602;2022-12-15T01:11:35;58.10;;;34.37;;
14698;SDS011;7439;50.804;4.602;2022-12-15T01:14:20;56.53;;;32.07;;
14698;SDS011;7439;50.804;4.602;2022-12-15T01:17:05;57.77;;;36.53;;
14698;SDS011;7439;50.804;4.602;2022-12-15T01:19:50;64.77;;;34.37;;
14698;SDS011;7439;50.804;4.602;2022-12-15T01:22:36;55.47;;;32.37;;
14698;SDS011;7439;50.804;4.602;2022-12-15T01:25:04;64.63;;;35.03;;
14698;SDS011;7439;50.804;4.602;2022-12-15T01:27:32;64.27;;;35.07;;
14698;SDS011;7439;50.804;4.602;2022-12-15T01:30:00;56.67;;;33.93;;
14698;SDS011;7439;50.804;4.602;2022-12-15T01:32:27;56.73;;;31.90;;
14698;SDS011;7439;50.804;4.602;2022-12-15T01:34:54;72.90;;;38.47;;
14698;SDS011;7439;50.804;4.602;2022-12-15T01:37:22;61.33;;;36.60;;
14698;SDS011;7439;50.804;4.602;2022-12-15T01:39:51;62.87;;;37.50;;
14698;SDS011;7439;50.804;4.602;2022-12-15T01:42:36;75.30;;;36.93;;
14698;SDS011;7439;50.804;4.602;2022-12-15T01:47:50;64.30;;;36.60;;
14698;SDS011;7439;50.804;4.602;2022-12-15T01:50:17;69.03;;;36.43;;
14698;SDS011;7439;50.804;4.602;2022-12-15T01:52:45;58.33;;;36.10;;
14698;SDS011;7439;50.804;4.602;2022-12-15T01:55:14;75.00;;;39.20;;
14698;SDS011;7439;50.804;4.602;2022-12-15T01:57:42;71.77;;;40.07;;
14698;SDS011;7439;50.804;4.602;2022-12-15T02:00:10;67.30;;;38.37;;
14698;SDS011;7439;50.804;4.602;2022-12-15T02:02:38;67.57;;;38.43;;
14698;SDS011;7439;50.804;4.602;2022-12-15T02:05:07;69.50;;;36.93;;
14698;SDS011;7439;50.804;4.602;2022-12-15T02:07:34;68.07;;;39.57;;
14698;SDS011;7439;50.804;4.602;2022-12-15T02:10:03;65.13;;;38.63;;
14698;SDS011;7439;50.804;4.602;2022-12-15T02:12:33;63.60;;;37.80;;
14698;SDS011;7439;50.804;4.602;2022-12-15T02:15:06;62.30;;;34.63;;
14698;SDS011;7439;50.804;4.602;2022-12-15T02:17:36;61.87;;;34.40;;
14698;SDS011;7439;50.804;4.602;2022-12-15T02:28:21;56.90;;;32.67;;
14698;SDS011;7439;50.804;4.602;2022-12-15T02:30:58;69.07;;;36.87;;
14698;SDS011;7439;50.804;4.602;2022-12-15T02:33:45;53.57;;;32.47;;
14698;SDS011;7439;50.804;4.602;2022-12-15T02:36:15;70.90;;;35.67;;
14698;SDS011;7439;50.804;4.602;2022-12-15T02:38:44;72.40;;;39.30;;
14698;SDS011;7439;50.804;4.602;2022-12-15T02:41:32;66.60;;;38.43;;
14698;SDS011;7439;50.804;4.602;2022-12-15T02:43:59;61.40;;;33.97;;
14698;SDS011;7439;50.804;4.602;2022-12-15T02:46:30;62.93;;;36.83;;
14698;SDS011;7439;50.804;4.602;2022-12-15T02:49:03;65.57;;;36.57;;
14698;SDS011;7439;50.804;4.602;2022-12-15T02:51:40;59.73;;;34.93;;
14698;SDS011;7439;50.804;4.602;2022-12-15T02:54:20;69.27;;;38.07;;
14698;SDS011;7439;50.804;4.602;2022-12-15T02:56:51;61.57;;;36.03;;
14698;SDS011;7439;50.804;4.602;2022-12-15T02:59:23;60.73;;;36.77;;
14698;SDS011;7439;50.804;4.602;2022-12-15T03:01:54;66.80;;;38.63;;
14698;SDS011;7439;50.804;4.602;2022-12-15T03:04:23;71.97;;;37.97;;
14698;SDS011;7439;50.804;4.602;2022-12-15T03:06:54;58.17;;;34.60;;
14698;SDS011;7439;50.804;4.602;2022-12-15T03:09:22;58.87;;;33.80;;
14698;SDS011;7439;50.804;4.602;2022-12-15T03:11:49;71.60;;;40.97;;
14698;SDS011;7439;50.804;4.602;2022-12-15T03:14:16;64.50;;;40.33;;
14698;SDS011;7439;50.804;4.602;2022-12-15T03:16:44;71.73;;;40.90;;
14698;SDS011;7439;50.804;4.602;2022-12-15T03:19:13;61.90;;;36.23;;
14698;SDS011;7439;50.804;4.602;2022-12-15T03:21:40;57.00;;;35.83;;
14698;SDS011;7439;50.804;4.602;2022-12-15T03:24:08;54.07;;;33.03;;
14698;SDS011;7439;50.804;4.602;2022-12-15T03:26:35;60.40;;;35.90;;
14698;SDS011;7439;50.804;4.602;2022-12-15T03:29:03;58.53;;;36.00;;
14698;SDS011;7439;50.804;4.602;2022-12-15T03:31:30;62.70;;;36.17;;
14698;SDS011;7439;50.804;4.602;2022-12-15T03:33:58;71.47;;;38.37;;
14698;SDS011;7439;50.804;4.602;2022-12-15T03:36:27;60.03;;;33.97;;
14698;SDS011;7439;50.804;4.602;2022-12-15T03:38:55;58.67;;;35.70;;
14698;SDS011;7439;50.804;4.602;2022-12-15T03:41:22;57.83;;;35.10;;
14698;SDS011;7439;50.804;4.602;2022-12-15T03:43:49;68.10;;;35.80;;
14698;SDS011;7439;50.804;4.602;2022-12-15T03:46:17;61.90;;;37.33;;
14698;SDS011;7439;50.804;4.602;2022-12-15T03:48:44;70.23;;;35.30;;
14698;SDS011;7439;50.804;4.602;2022-12-15T03:51:12;62.20;;;35.97;;
14698;SDS011;7439;50.804;4.602;2022-12-15T03:53:40;62.50;;;35.97;;
14698;SDS011;7439;50.804;4.602;2022-12-15T03:56:08;66.70;;;34.13;;
14698;SDS011;7439;50.804;4.602;2022-12-15T03:58:36;69.30;;;37.13;;
14698;SDS011;7439;50.804;4.602;2022-12-15T04:01:08;66.43;;;38.80;;
14698;SDS011;7439;50.804;4.602;2022-12-15T04:03:36;65.20;;;36.87;;
14698;SDS011;7439;50.804;4.602;2022-12-15T04:06:03;61.87;;;36.77;;
14698;SDS011;7439;50.804;4.602;2022-12-15T04:08:31;65.27;;;37.07;;
14698;SDS011;7439;50.804;4.602;2022-12-15T04:10:59;63.10;;;36.57;;
14698;SDS011;7439;50.804;4.602;2022-12-15T04:13:27;67.07;;;37.67;;
14698;SDS011;7439;50.804;4.602;2022-12-15T04:15:54;66.43;;;39.03;;
14698;SDS011;7439;50.804;4.602;2022-12-15T04:18:22;68.13;;;37.13;;
14698;SDS011;7439;50.804;4.602;2022-12-15T04:20:49;61.70;;;35.83;;
14698;SDS011;7439;50.804;4.602;2022-12-15T04:23:17;65.67;;;36.77;;
14698;SDS011;7439;50.804;4.602;2022-12-15T04:25:44;61.80;;;36.87;;
14698;SDS011;7439;50.804;4.602;2022-12-15T04:28:31;63.00;;;34.50;;
14698;SDS011;7439;50.804;4.602;2022-12-15T04:31:16;64.83;;;36.07;;
14698;SDS011;7439;50.804;4.602;2022-12-15T04:34:03;58.53;;;34.93;;
14698;SDS011;7439;50.804;4.602;2022-12-15T04:36:49;66.77;;;36.63;;
14698;SDS011;7439;50.804;4.602;2022-12-15T04:39:35;62.33;;;35.63;;
14698;SDS011;7439;50.804;4.602;2022-12-15T04:42:20;59.37;;;33.90;;
14698;SDS011;7439;50.804;4.602;2022-12-15T04:45:07;58.30;;;33.77;;
14698;SDS011;7439;50.804;4.602;2022-12-15T04:47:52;65.33;;;34.20;;
14698;SDS011;7439;50.804;4.602;2022-12-15T04:50:37;61.90;;;33.97;;
14698;SDS011;7439;50.804;4.602;2022-12-15T04:53:22;57.60;;;34.77;;
14698;SDS011;7439;50.804;4.602;2022-12-15T04:56:08;54.47;;;33.07;;
14698;SDS011;7439;50.804;4.602;2022-12-15T04:58:53;59.40;;;33.90;;
14698;SDS011;7439;50.804;4.602;2022-12-15T05:01:39;65.40;;;36.90;;
14698;SDS011;7439;50.804;4.602;2022-12-15T05:04:24;64.90;;;34.63;;
14698;SDS011;7439;50.804;4.602;2022-12-15T05:07:09;60.80;;;34.10;;
14698;SDS011;7439;50.804;4.602;2022-12-15T05:09:55;59.37;;;31.20;;
14698;SDS011;7439;50.804;4.602;2022-12-15T05:12:40;58.93;;;34.50;;
14698;SDS011;7439;50.804;4.602;2022-12-15T05:15:24;56.63;;;34.07;;
14698;SDS011;7439;50.804;4.602;2022-12-15T05:18:11;59.70;;;31.83;;
14698;SDS011;7439;50.804;4.602;2022-12-15T05:20:56;62.83;;;35.07;;
14698;SDS011;7439;50.804;4.602;2022-12-15T05:23:41;60.93;;;34.30;;
14698;SDS011;7439;50.804;4.602;2022-12-15T05:26:26;70.50;;;34.63;;
14698;SDS011;7439;50.804;4.602;2022-12-15T05:29:11;57.17;;;34.23;;
14698;SDS011;7439;50.804;4.602;2022-12-15T05:31:56;53.90;;;31.50;;
14698;SDS011;7439;50.804;4.602;2022-12-15T05:34:25;54.00;;;29.70;;
14698;SDS011;7439;50.804;4.602;2022-12-15T05:36:53;57.37;;;35.80;;
14698;SDS011;7439;50.804;4.602;2022-12-15T05:39:21;58.73;;;34.43;;
14698;SDS011;7439;50.804;4.602;2022-12-15T05:41:49;64.37;;;34.90;;
14698;SDS011;7439;50.804;4.602;2022-12-15T05:44:16;65.93;;;35.03;;
14698;SDS011;7439;50.804;4.602;2022-12-15T05:46:44;59.37;;;34.57;;
14698;SDS011;7439;50.804;4.602;2022-12-15T05:49:12;62.03;;;35.83;;
14698;SDS011;7439;50.804;4.602;2022-12-15T05:51:42;62.27;;;34.90;;
14698;SDS011;7439;50.804;4.602;2022-12-15T05:54:10;59.90;;;34.67;;
14698;SDS011;7439;50.804;4.602;2022-12-15T05:56:39;52.27;;;34.73;;
14698;SDS011;7439;50.804;4.602;2022-12-15T05:59:07;64.63;;;35.83;;
14698;SDS011;7439;50.804;4.602;2022-12-15T06:01:34;64.20;;;35.03;;
14698;SDS011;7439;50.804;4.602;2022-12-15T06:04:03;63.40;;;33.33;;
14698;SDS011;7439;50.804;4.602;2022-12-15T06:06:31;68.80;;;35.83;;
14698;SDS011;7439;50.804;4.602;2022-12-15T06:09:00;60.10;;;35.23;;
14698;SDS011;7439;50.804;4.602;2022-12-15T06:11:28;62.57;;;36.53;;
14698;SDS011;7439;50.804;4.602;2022-12-15T06:13:55;57.50;;;33.10;;
14698;SDS011;7439;50.804;4.602;2022-12-15T06:16:24;61.07;;;35.47;;
14698;SDS011;7439;50.804;4.602;2022-12-15T06:18:52;56.40;;;33.63;;
14698;SDS011;7439;50.804;4.602;2022-12-15T06:21:21;68.27;;;37.17;;
14698;SDS011;7439;50.804;4.602;2022-12-15T06:23:48;60.43;;;32.03;;
14698;SDS011;7439;50.804;4.602;2022-12-15T06:26:19;72.67;;;37.10;;
14698;SDS011;7439;50.804;4.602;2022-12-15T06:28:46;62.63;;;35.67;;
14698;SDS011;7439;50.804;4.602;2022-12-15T06:31:15;61.07;;;34.53;;
14698;SDS011;7439;50.804;4.602;2022-12-15T06:33:42;63.07;;;35.77;;
14698;SDS011;7439;50.804;4.602;2022-12-15T06:36:10;56.10;;;33.37;;
14698;SDS011;7439;50.804;4.602;2022-12-15T06:38:39;60.20;;;35.67;;
14698;SDS011;7439;50.804;4.602;2022-12-15T06:41:08;59.33;;;32.67;;
14698;SDS011;7439;50.804;4.602;2022-12-15T06:43:37;50.90;;;35.00;;
14698;SDS011;7439;50.804;4.602;2022-12-15T06:46:04;59.73;;;34.70;;
14698;SDS011;7439;50.804;4.602;2022-12-15T06:48:33;58.30;;;32.60;;
14698;SDS011;7439;50.804;4.602;2022-12-15T06:51:01;57.50;;;34.63;;
14698;SDS011;7439;50.804;4.602;2022-12-15T06:53:29;57.17;;;33.97;;
14698;SDS011;7439;50.804;4.602;2022-12-15T06:56:00;59.30;;;34.67;;
14698;SDS011;7439;50.804;4.602;2022-12-15T06:58:28;61.53;;;34.53;;
14698;SDS011;7439;50.804;4.602;2022-12-15T07:00:57;58.10;;;32.67;;
14698;SDS011;7439;50.804;4.602;2022-12-15T07:03:26;64.77;;;33.07;;
14698;SDS011;7439;50.804;4.602;2022-12-15T07:05:59;58.90;;;32.67;;
14698;SDS011;7439;50.804;4.602;2022-12-15T07:08:27;56.10;;;32.00;;
14698;SDS011;7439;50.804;4.602;2022-12-15T07:10:55;52.57;;;33.23;;
14698;SDS011;7439;50.804;4.602;2022-12-15T07:13:22;57.00;;;32.83;;
14698;SDS011;7439;50.804;4.602;2022-12-15T07:15:50;54.30;;;33.83;;
14698;SDS011;7439;50.804;4.602;2022-12-15T07:18:19;50.17;;;31.43;;
14698;SDS011;7439;50.804;4.602;2022-12-15T07:20:46;55.23;;;31.93;;
14698;SDS011;7439;50.804;4.602;2022-12-15T07:23:14;62.47;;;33.03;;
14698;SDS011;7439;50.804;4.602;2022-12-15T07:25:41;55.87;;;33.13;;
14698;SDS011;7439;50.804;4.602;2022-12-15T07:28:09;57.50;;;32.77;;
14698;SDS011;7439;50.804;4.602;2022-12-15T07:30:36;61.17;;;31.93;;
14698;SDS011;7439;50.804;4.602;2022-12-15T07:33:04;57.30;;;33.10;;
14698;SDS011;7439;50.804;4.602;2022-12-15T07:35:33;63.37;;;35.50;;
14698;SDS011;7439;50.804;4.602;2022-12-15T07:38:03;57.67;;;32.77;;
14698;SDS011;7439;50.804;4.602;2022-12-15T07:40:31;60.37;;;32.77;;
14698;SDS011;7439;50.804;4.602;2022-12-15T07:42:59;56.80;;;31.70;;
14698;SDS011;7439;50.804;4.602;2022-12-15T07:45:26;55.47;;;30.07;;
14698;SDS011;7439;50.804;4.602;2022-12-15T07:47:53;61.67;;;33.30;;
14698;SDS011;7439;50.804;4.602;2022-12-15T07:50:21;59.30;;;33.03;;
14698;SDS011;7439;50.804;4.602;2022-12-15T07:52:50;54.23;;;33.00;;
14698;SDS011;7439;50.804;4.602;2022-12-15T07:55:18;61.17;;;33.07;;
14698;SDS011;7439;50.804;4.602;2022-12-15T07:57:46;60.70;;;31.47;;
14698;SDS011;7439;50.804;4.602;2022-12-15T08:00:14;57.13;;;30.77;;
14698;SDS011;7439;50.804;4.602;2022-12-15T08:02:43;58.77;;;31.13;;
14698;SDS011;7439;50.804;4.602;2022-12-15T08:05:10;56.60;;;31.33;;
14698;SDS011;7439;50.804;4.602;2022-12-15T08:07:38;68.97;;;34.83;;
14698;SDS011;7439;50.804;4.602;2022-12-15T08:10:07;57.40;;;32.93;;
14698;SDS011;7439;50.804;4.602;2022-12-15T08:12:35;75.83;;;36.80;;
14698;SDS011;7439;50.804;4.602;2022-12-15T08:15:02;74.67;;;36.30;;
14698;SDS011;7439;50.804;4.602;2022-12-15T08:17:30;67.43;;;30.67;;
14698;SDS011;7439;50.804;4.602;2022-12-15T08:19:58;53.47;;;32.43;;
14698;SDS011;7439;50.804;4.602;2022-12-15T08:22:25;54.20;;;31.27;;
14698;SDS011;7439;50.804;4.602;2022-12-15T08:24:52;57.10;;;32.40;;
14698;SDS011;7439;50.804;4.602;2022-12-15T08:27:21;58.13;;;33.60;;
14698;SDS011;7439;50.804;4.602;2022-12-15T08:29:51;62.73;;;34.17;;
14698;SDS011;7439;50.804;4.602;2022-12-15T08:32:19;60.77;;;34.37;;
14698;SDS011;7439;50.804;4.602;2022-12-15T08:34:47;65.83;;;39.10;;
14698;SDS011;7439;50.804;4.602;2022-12-15T08:37:14;71.60;;;36.10;;
14698;SDS011;7439;50.804;4.602;2022-12-15T08:39:41;59.50;;;34.07;;
14698;SDS011;7439;50.804;4.602;2022-12-15T08:42:09;57.47;;;38.43;;
14698;SDS011;7439;50.804;4.602;2022-12-15T08:44:38;68.53;;;36.47;;
14698;SDS011;7439;50.804;4.602;2022-12-15T08:47:05;64.33;;;36.97;;
14698;SDS011;7439;50.804;4.602;2022-12-15T08:49:33;66.43;;;34.50;;
14698;SDS011;7439;50.804;4.602;2022-12-15T08:52:00;65.83;;;36.17;;
14698;SDS011;7439;50.804;4.602;2022-12-15T08:54:28;64.77;;;37.13;;
14698;SDS011;7439;50.804;4.602;2022-12-15T08:56:56;67.10;;;37.53;;
14698;SDS011;7439;50.804;4.602;2022-12-15T08:59:24;56.97;;;34.53;;
14698;SDS011;7439;50.804;4.602;2022-12-15T09:01:52;58.30;;;34.37;;
14698;SDS011;7439;50.804;4.602;2022-12-15T09:04:20;52.20;;;32.97;;
14698;SDS011;7439;50.804;4.602;2022-12-15T09:06:48;61.03;;;33.93;;
14698;SDS011;7439;50.804;4.602;2022-12-15T09:09:15;58.83;;;37.63;;
14698;SDS011;7439;50.804;4.602;2022-12-15T09:11:42;75.57;;;41.63;;
14698;SDS011;7439;50.804;4.602;2022-12-15T09:14:10;67.53;;;38.57;;
14698;SDS011;7439;50.804;4.602;2022-12-15T09:16:37;58.30;;;38.93;;
14698;SDS011;7439;50.804;4.602;2022-12-15T09:19:06;65.47;;;39.63;;
14698;SDS011;7439;50.804;4.602;2022-12-15T09:21:33;69.37;;;41.43;;
14698;SDS011;7439;50.804;4.602;2022-12-15T09:24:01;68.33;;;41.10;;
14698;SDS011;7439;50.804;4.602;2022-12-15T09:26:29;58.83;;;40.20;;
14698;SDS011;7439;50.804;4.602;2022-12-15T09:28:57;67.50;;;39.43;;
14698;SDS011;7439;50.804;4.602;2022-12-15T09:31:26;64.00;;;38.87;;
14698;SDS011;7439;50.804;4.602;2022-12-15T09:33:55;70.20;;;39.50;;
14698;SDS011;7439;50.804;4.602;2022-12-15T09:36:25;75.00;;;40.23;;
14698;SDS011;7439;50.804;4.602;2022-12-15T09:38:54;68.13;;;37.97;;
14698;SDS011;7439;50.804;4.602;2022-12-15T09:41:22;67.13;;;38.50;;
14698;SDS011;7439;50.804;4.602;2022-12-15T09:43:52;63.20;;;38.73;;
14698;SDS011;7439;50.804;4.602;2022-12-15T09:46:24;68.57;;;41.07;;
14698;SDS011;7439;50.804;4.602;2022-12-15T09:48:53;62.80;;;37.13;;
14698;SDS011;7439;50.804;4.602;2022-12-15T09:51:23;60.50;;;39.40;;
14698;SDS011;7439;50.804;4.602;2022-12-15T09:53:53;55.60;;;36.57;;
14698;SDS011;7439;50.804;4.602;2022-12-15T09:56:22;60.60;;;41.00;;
14698;SDS011;7439;50.804;4.602;2022-12-15T09:58:50;58.87;;;38.53;;
14698;SDS011;7439;50.804;4.602;2022-12-15T10:01:22;58.47;;;39.73;;
14698;SDS011;7439;50.804;4.602;2022-12-15T10:03:53;61.83;;;39.33;;
14698;SDS011;7439;50.804;4.602;2022-12-15T10:06:22;58.80;;;37.83;;
14698;SDS011;7439;50.804;4.602;2022-12-15T10:08:55;50.23;;;35.90;;
14698;SDS011;7439;50.804;4.602;2022-12-15T10:11:25;52.07;;;36.97;;
14698;SDS011;7439;50.804;4.602;2022-12-15T10:13:58;57.20;;;38.67;;
14698;SDS011;7439;50.804;4.602;2022-12-15T10:16:31;49.73;;;34.67;;
14698;SDS011;7439;50.804;4.602;2022-12-15T10:19:02;50.13;;;36.17;;
14698;SDS011;7439;50.804;4.602;2022-12-15T10:21:33;50.63;;;37.13;;
14698;SDS011;7439;50.804;4.602;2022-12-15T10:24:06;53.47;;;38.93;;
14698;SDS011;7439;50.804;4.602;2022-12-15T10:26:36;58.10;;;40.03;;
14698;SDS011;7439;50.804;4.602;2022-12-15T10:31:51;49.87;;;36.93;;
14698;SDS011;7439;50.804;4.602;2022-12-15T10:34:23;56.03;;;37.70;;
14698;SDS011;7439;50.804;4.602;2022-12-15T10:36:51;60.70;;;38.43;;
14698;SDS011;7439;50.804;4.602;2022-12-15T10:39:20;57.93;;;39.20;;
14698;SDS011;7439;50.804;4.602;2022-12-15T10:44:35;60.30;;;37.63;;
14698;SDS011;7439;50.804;4.602;2022-12-15T10:47:06;57.87;;;38.30;;
14698;SDS011;7439;50.804;4.602;2022-12-15T10:49:35;62.07;;;38.83;;
14698;SDS011;7439;50.804;4.602;2022-12-15T10:52:02;57.33;;;38.10;;
14698;SDS011;7439;50.804;4.602;2022-12-15T10:54:34;52.07;;;37.73;;
14698;SDS011;7439;50.804;4.602;2022-12-15T10:57:02;52.20;;;38.40;;
14698;SDS011;7439;50.804;4.602;2022-12-15T10:59:41;52.23;;;39.47;;
14698;SDS011;7439;50.804;4.602;2022-12-15T11:02:21;52.70;;;38.43;;
14698;SDS011;7439;50.804;4.602;2022-12-15T11:04:53;50.60;;;39.00;;
14698;SDS011;7439;50.804;4.602;2022-12-15T11:07:21;55.83;;;39.20;;
14698;SDS011;7439;50.804;4.602;2022-12-15T11:09:53;50.00;;;38.30;;
14698;SDS011;7439;50.804;4.602;2022-12-15T11:12:27;48.27;;;38.30;;
14698;SDS011;7439;50.804;4.602;2022-12-15T11:17:56;48.60;;;36.43;;
14698;SDS011;7439;50.804;4.602;2022-12-15T11:20:26;48.90;;;38.70;;
14698;SDS011;7439;50.804;4.602;2022-12-15T11:22:54;44.70;;;36.73;;
14698;SDS011;7439;50.804;4.602;2022-12-15T11:25:27;48.17;;;36.77;;
14698;SDS011;7439;50.804;4.602;2022-12-15T11:27:56;47.60;;;36.13;;
14698;SDS011;7439;50.804;4.602;2022-12-15T11:30:24;49.60;;;38.33;;
14698;SDS011;7439;50.804;4.602;2022-12-15T11:32:52;47.97;;;37.80;;
14698;SDS011;7439;50.804;4.602;2022-12-15T11:35:21;49.67;;;38.33;;
14698;SDS011;7439;50.804;4.602;2022-12-15T11:37:50;50.20;;;34.33;;
14698;SDS011;7439;50.804;4.602;2022-12-15T11:40:28;49.23;;;36.50;;
14698;SDS011;7439;50.804;4.602;2022-12-15T11:43:13;55.20;;;37.90;;
14698;SDS011;7439;50.804;4.602;2022-12-15T11:45:46;58.93;;;37.80;;
14698;SDS011;7439;50.804;4.602;2022-12-15T11:48:16;50.43;;;36.60;;
14698;SDS011;7439;50.804;4.602;2022-12-15T11:50:49;46.70;;;36.37;;
14698;SDS011;7439;50.804;4.602;2022-12-15T11:53:26;45.70;;;35.13;;
14698;SDS011;7439;50.804;4.602;2022-12-15T11:56:02;45.07;;;35.80;;
14698;SDS011;7439;50.804;4.602;2022-12-15T11:58:44;49.10;;;35.70;;
14698;SDS011;7439;50.804;4.602;2022-12-15T12:01:19;43.67;;;35.47;;
14698;SDS011;7439;50.804;4.602;2022-12-15T12:03:51;43.60;;;37.57;;
14698;SDS011;7439;50.804;4.602;2022-12-15T12:06:22;49.27;;;37.87;;
14698;SDS011;7439;50.804;4.602;2022-12-15T12:08:58;44.00;;;36.67;;
14698;SDS011;7439;50.804;4.602;2022-12-15T12:11:33;49.00;;;38.00;;
14698;SDS011;7439;50.804;4.602;2022-12-15T12:14:11;44.33;;;36.30;;
14698;SDS011;7439;50.804;4.602;2022-12-15T12:16:42;44.23;;;34.77;;
14698;SDS011;7439;50.804;4.602;2022-12-15T12:19:10;43.07;;;35.07;;
14698;SDS011;7439;50.804;4.602;2022-12-15T12:21:39;43.13;;;35.93;;
14698;SDS011;7439;50.804;4.602;2022-12-15T12:24:10;41.77;;;33.63;;
14698;SDS011;7439;50.804;4.602;2022-12-15T12:26:42;37.57;;;32.57;;
14698;SDS011;7439;50.804;4.602;2022-12-15T12:29:12;40.47;;;33.93;;
14698;SDS011;7439;50.804;4.602;2022-12-15T12:31:42;38.23;;;33.50;;
14698;SDS011;7439;50.804;4.602;2022-12-15T12:34:14;37.57;;;33.50;;
14698;SDS011;7439;50.804;4.602;2022-12-15T12:36:44;39.10;;;32.20;;
14698;SDS011;7439;50.804;4.602;2022-12-15T12:39:15;41.83;;;34.17;;
14698;SDS011;7439;50.804;4.602;2022-12-15T12:41:49;38.10;;;33.90;;
14698;SDS011;7439;50.804;4.602;2022-12-15T12:44:19;39.37;;;31.93;;
14698;SDS011;7439;50.804;4.602;2022-12-15T12:46:51;39.23;;;32.77;;
14698;SDS011;7439;50.804;4.602;2022-12-15T12:49:21;36.27;;;32.10;;
14698;SDS011;7439;50.804;4.602;2022-12-15T12:51:51;34.57;;;30.60;;
14698;SDS011;7439;50.804;4.602;2022-12-15T12:54:38;38.00;;;32.63;;
14698;SDS011;7439;50.804;4.602;2022-12-15T12:59:50;34.93;;;31.03;;
14698;SDS011;7439;50.804;4.602;2022-12-15T13:07:52;35.60;;;31.77;;
14698;SDS011;7439;50.804;4.602;2022-12-15T13:10:20;39.37;;;32.50;;
14698;SDS011;7439;50.804;4.602;2022-12-15T13:12:49;36.90;;;32.30;;
14698;SDS011;7439;50.804;4.602;2022-12-15T13:15:21;34.53;;;30.67;;
14698;SDS011;7439;50.804;4.602;2022-12-15T13:17:56;38.47;;;31.30;;
14698;SDS011;7439;50.804;4.602;2022-12-15T13:20:25;37.00;;;32.00;;
14698;SDS011;7439;50.804;4.602;2022-12-15T13:22:54;35.13;;;30.67;;
14698;SDS011;7439;50.804;4.602;2022-12-15T13:25:35;37.33;;;33.13;;
14698;SDS011;7439;50.804;4.602;2022-12-15T13:28:15;33.33;;;29.73;;
14698;SDS011;7439;50.804;4.602;2022-12-15T13:33:26;34.33;;;29.43;;
14698;SDS011;7439;50.804;4.602;2022-12-15T13:35:53;32.73;;;29.33;;
14698;SDS011;7439;50.804;4.602;2022-12-15T13:38:30;31.07;;;27.77;;
14698;SDS011;7439;50.804;4.602;2022-12-15T13:41:21;32.80;;;29.20;;
14698;SDS011;7439;50.804;4.602;2022-12-15T13:43:48;32.80;;;28.87;;
14698;SDS011;7439;50.804;4.602;2022-12-15T13:46:19;33.10;;;28.27;;
14698;SDS011;7439;50.804;4.602;2022-12-15T13:48:50;34.13;;;28.27;;
14698;SDS011;7439;50.804;4.602;2022-12-15T13:51:27;30.47;;;27.03;;
14698;SDS011;7439;50.804;4.602;2022-12-15T13:53:57;31.50;;;26.37;;
14698;SDS011;7439;50.804;4.602;2022-12-15T13:59:12;32.47;;;25.90;;
14698;SDS011;7439;50.804;4.602;2022-12-15T14:01:46;31.30;;;27.50;;
14698;SDS011;7439;50.804;4.602;2022-12-15T14:04:14;31.47;;;26.37;;
14698;SDS011;7439;50.804;4.602;2022-12-15T14:06:44;29.20;;;25.57;;
14698;SDS011;7439;50.804;4.602;2022-12-15T14:09:12;29.73;;;25.70;;
14698;SDS011;7439;50.804;4.602;2022-12-15T14:11:41;30.07;;;25.03;;
14698;SDS011;7439;50.804;4.602;2022-12-15T14:14:20;32.67;;;25.40;;
14698;SDS011;7439;50.804;4.602;2022-12-15T14:16:53;29.47;;;25.93;;
14698;SDS011;7439;50.804;4.602;2022-12-15T14:19:21;29.57;;;25.93;;
14698;SDS011;7439;50.804;4.602;2022-12-15T14:21:49;28.13;;;24.57;;
14698;SDS011;7439;50.804;4.602;2022-12-15T14:24:21;28.07;;;24.10;;
14698;SDS011;7439;50.804;4.602;2022-12-15T14:26:49;28.37;;;25.27;;
14698;SDS011;7439;50.804;4.602;2022-12-15T14:29:17;30.63;;;27.27;;
14698;SDS011;7439;50.804;4.602;2022-12-15T14:31:47;33.17;;;27.33;;
14698;SDS011;7439;50.804;4.602;2022-12-15T14:34:17;34.30;;;28.70;;
14698;SDS011;7439;50.804;4.602;2022-12-15T14:36:45;33.27;;;27.23;;
14698;SDS011;7439;50.804;4.602;2022-12-15T14:39:16;34.20;;;26.27;;
14698;SDS011;7439;50.804;4.602;2022-12-15T14:41:46;29.87;;;26.33;;
14698;SDS011;7439;50.804;4.602;2022-12-15T14:44:17;39.23;;;29.30;;
14698;SDS011;7439;50.804;4.602;2022-12-15T14:46:46;35.83;;;28.77;;
14698;SDS011;7439;50.804;4.602;2022-12-15T14:49:16;33.83;;;27.70;;
14698;SDS011;7439;50.804;4.602;2022-12-15T14:51:45;35.07;;;26.83;;
14698;SDS011;7439;50.804;4.602;2022-12-15T14:54:25;36.80;;;27.97;;
14698;SDS011;7439;50.804;4.602;2022-12-15T14:56:55;34.93;;;25.90;;
14698;SDS011;7439;50.804;4.602;2022-12-15T14:59:23;35.90;;;27.93;;
14698;SDS011;7439;50.804;4.602;2022-12-15T15:01:53;31.43;;;24.70;;
14698;SDS011;7439;50.804;4.602;2022-12-15T15:04:21;30.10;;;21.93;;
14698;SDS011;7439;50.804;4.602;2022-12-15T15:06:52;32.63;;;23.77;;
14698;SDS011;7439;50.804;4.602;2022-12-15T15:09:21;32.53;;;23.57;;
14698;SDS011;7439;50.804;4.602;2022-12-15T15:11:50;29.73;;;23.30;;
14698;SDS011;7439;50.804;4.602;2022-12-15T15:14:19;34.07;;;26.00;;
14698;SDS011;7439;50.804;4.602;2022-12-15T15:16:58;36.77;;;28.13;;
14698;SDS011;7439;50.804;4.602;2022-12-15T15:19:26;36.97;;;26.57;;
14698;SDS011;7439;50.804;4.602;2022-12-15T15:21:54;31.83;;;23.20;;
14698;SDS011;7439;50.804;4.602;2022-12-15T15:24:22;35.80;;;24.63;;
14698;SDS011;7439;50.804;4.602;2022-12-15T15:26:50;31.87;;;22.97;;
14698;SDS011;7439;50.804;4.602;2022-12-15T15:29:29;33.83;;;24.07;;
14698;SDS011;7439;50.804;4.602;2022-12-15T15:32:05;29.53;;;21.63;;
14698;SDS011;7439;50.804;4.602;2022-12-15T15:34:33;28.93;;;21.73;;